Portada
METAR-TAF:

METAR-TAF

Aeroports :

Khartum, Sudan

latitud: 15-36N, longitud: 032-33E, altitud: 382 m

Observació

L'informe es va fer fa 22 minuts, a les 11:00 UTC
Vent 11 kt del Nord/Nord-Est
Temperatura 30°C
Humitat 24%
Pressió 1015 hPa
Visibilitat 10 km o més
sense núvols per sota de 1500 mi sense presència de cumulonimbus.

METAR: HSSS 181100Z 03011KT CAVOK 30/07 Q1015 NOSIG

Hora: 14:22 (11:22 UTC)

Pronòstic

L'informe es va fer fa 6 hores i 22 minuts, a les 05:00 UTC
Pronòstic vàlid del 18 a les 06 UTC al 19 a les 12 UTC
Vent 12 kt del Nord amb ràfegues de 24 kt
Visibilitat 10 km o més
sense núvols per sota de 1500 mi sense presència de cumulonimbus.
Temporalment
l' 18 a les 06 UTC al 18 a les 09 UTC
Visibilitat: 6000 m

TAF: HSSS 180500Z 1806/1912 36012G24KT CAVOK TEMPO 1806/1809 6000

Observacions i pronòstics meteorològics de més de 4000 aeroports (METAR i TAF).

Les estacions disponibles són els punts grocs i vermells al mapa.

Posi el ratolí al punt desitjat per veure el nom de l'estació.

Feu clic per veure les observacions i els pronòstics meteorològics.

Per canviar el mapa: feu clic els botons verds amb una creu de color negre per apropar; al botó verd amb un guió per allunyar la imatge; o en les fletxes verdes per a mapes adjacents.


METAR-TAF: